Time;durP1;ratioP1;P1;durP2;ratioP2;P2;SDS_P1;SDS_P2;PMS_P1;PMS_P2;Temp;Humidity;BMP_temperature;BMP_pressure;BME280_temperature;BME280_humidity;BME280_pressure;Samples;Min_cycle;Max_cycle;Signal;HPM_P1;HPM_P2
2023/03/21 00:02:24;;;;;;;60.53;29.30;;;;;;;;;;8432656;28;20048;-83
2023/03/21 00:06:27;;;;;;;66.63;30.15;;;;;;;;;;8433432;28;20545;-83
2023/03/21 00:10:30;;;;;;;72.00;31.13;;;;;;;;;;8409385;28;20535;-84
2023/03/21 00:14:33;;;;;;;64.18;29.67;;;;;;;;;;8432295;28;20483;-83
2023/03/21 00:18:41;;;;;;;61.50;28.25;;;;;;;;;;8418018;28;20059;-83
2023/03/21 00:22:43;;;;;;;54.90;26.00;;;;;;;;;;8432303;28;20040;-84
2023/03/21 00:26:47;;;;;;;51.08;24.55;;;;;;;;;;8431821;28;20044;-85
2023/03/21 00:30:50;;;;;;;48.90;24.73;;;;;;;;;;8431952;28;20045;-83
2023/03/21 00:34:54;;;;;;;57.55;26.10;;;;;;;;;;8405189;28;20402;-84
2023/03/21 00:38:59;;;;;;;58.08;26.63;;;;;;;;;;8416667;28;20142;-85
2023/03/21 00:43:02;;;;;;;58.65;25.10;;;;;;;;;;8424659;28;20052;-84
2023/03/21 00:47:06;;;;;;;56.40;27.13;;;;;;;;;;8417966;28;20127;-83
2023/03/21 00:51:15;;;;;;;61.47;28.75;;;;;;;;;;8431548;28;20050;-84
2023/03/21 00:55:19;;;;;;;64.47;28.52;;;;;;;;;;8431844;28;20048;-83
2023/03/21 00:59:22;;;;;;;62.35;25.77;;;;;;;;;;8427841;28;20089;-83
2023/03/21 01:03:25;;;;;;;58.95;26.35;;;;;;;;;;8430571;28;20052;-84
2023/03/21 01:07:30;;;;;;;70.93;29.50;;;;;;;;;;8430875;28;20052;-84
2023/03/21 01:11:33;;;;;;;70.60;29.20;;;;;;;;;;8430903;28;20040;-83
2023/03/21 01:15:36;;;;;;;68.13;29.00;;;;;;;;;;8430785;28;20431;-84
2023/03/21 01:19:39;;;;;;;60.67;27.55;;;;;;;;;;8430016;28;20040;-83
2023/03/21 01:23:45;;;;;;;68.93;27.02;;;;;;;;;;8430631;28;20043;-83
2023/03/21 01:27:47;;;;;;;55.85;25.17;;;;;;;;;;8430139;28;20059;-84
2023/03/21 01:31:50;;;;;;;59.53;25.13;;;;;;;;;;8430041;28;20044;-84
2023/03/21 01:35:53;;;;;;;61.53;26.15;;;;;;;;;;8416782;28;20473;-84
2023/03/21 01:39:57;;;;;;;60.78;24.35;;;;;;;;;;8429647;28;20139;-84
2023/03/21 01:44:00;;;;;;;58.05;24.25;;;;;;;;;;8430114;28;20442;-83
2023/03/21 01:48:03;;;;;;;60.97;25.63;;;;;;;;;;8429380;28;20106;-83
2023/03/21 01:52:11;;;;;;;58.33;25.02;;;;;;;;;;8429263;28;20548;-83
2023/03/21 01:56:21;;;;;;;56.38;24.80;;;;;;;;;;8429922;28;20048;-83
2023/03/21 02:00:28;;;;;;;69.10;26.23;;;;;;;;;;8415650;28;20115;-84
2023/03/21 02:04:31;;;;;;;66.28;26.13;;;;;;;;;;8408959;28;20072;-85
2023/03/21 02:08:34;;;;;;;67.75;26.45;;;;;;;;;;8425900;28;20052;-84
2023/03/21 02:12:38;;;;;;;68.43;24.10;;;;;;;;;;8428362;28;20119;-83
2023/03/21 02:16:48;;;;;;;67.95;24.60;;;;;;;;;;8428884;28;20047;-83
2023/03/21 02:21:39;;;;;;;62.55;23.58;;;;;;;;;;8425676;28;20052;-84
2023/03/21 02:26:15;;;;;;;59.00;24.38;;;;;;;;;;8428598;28;20448;-84
2023/03/21 02:30:42;;;;;;;60.42;24.27;;;;;;;;;;8429033;28;20468;-83
2023/03/21 02:35:07;;;;;;;60.95;24.35;;;;;;;;;;8428655;28;20043;-84
2023/03/21 02:39:18;;;;;;;58.35;22.58;;;;;;;;;;8428204;28;20055;-83
2023/03/21 02:43:29;;;;;;;57.90;22.83;;;;;;;;;;8428093;28;20141;-83
2023/03/21 02:47:39;;;;;;;74.63;27.10;;;;;;;;;;8427914;28;20065;-83
2023/03/21 02:51:45;;;;;;;58.88;23.40;;;;;;;;;;8428721;28;20495;-85
2023/03/21 02:55:51;;;;;;;57.22;23.58;;;;;;;;;;8428296;28;20061;-84
2023/03/21 02:59:55;;;;;;;57.17;22.67;;;;;;;;;;8428439;28;20044;-83
2023/03/21 03:03:58;;;;;;;64.38;23.50;;;;;;;;;;8414966;28;20051;-84
2023/03/21 03:08:14;;;;;;;72.55;23.40;;;;;;;;;;8428433;28;20048;-85
2023/03/21 03:12:27;;;;;;;62.88;22.83;;;;;;;;;;8427901;28;20052;-83
2023/03/21 03:16:40;;;;;;;63.15;22.48;;;;;;;;;;8428064;28;20040;-84
2023/03/21 03:20:53;;;;;;;57.97;22.08;;;;;;;;;;8427753;28;20040;-84
2023/03/21 03:25:00;;;;;;;64.82;23.95;;;;;;;;;;8431158;28;20051;-84
2023/03/21 03:29:08;;;;;;;66.93;23.88;;;;;;;;;;8434234;28;20047;-84
2023/03/21 03:33:15;;;;;;;77.82;24.80;;;;;;;;;;8433696;28;20052;-84
2023/03/21 03:37:25;;;;;;;79.13;25.98;;;;;;;;;;8433575;28;20051;-85
2023/03/21 03:41:28;;;;;;;69.40;24.83;;;;;;;;;;8407707;28;20059;-82
2023/03/21 03:45:37;;;;;;;82.13;23.98;;;;;;;;;;8433410;28;20047;-83
2023/03/21 03:49:46;;;;;;;84.90;27.55;;;;;;;;;;8433202;28;20108;-84
2023/03/21 03:53:55;;;;;;;76.80;22.30;;;;;;;;;;8417363;28;20048;-83
2023/03/21 03:57:58;;;;;;;78.38;22.77;;;;;;;;;;8423154;28;20552;-84
2023/03/21 04:02:03;;;;;;;72.68;22.30;;;;;;;;;;8432884;28;20094;-83
2023/03/21 04:06:06;;;;;;;88.97;27.70;;;;;;;;;;8423675;28;20074;-83
2023/03/21 04:10:10;;;;;;;97.72;29.25;;;;;;;;;;8430158;28;20505;-85
2023/03/21 04:14:13;;;;;;;87.03;25.83;;;;;;;;;;8432443;28;20044;-83
2023/03/21 04:18:18;;;;;;;69.63;24.58;;;;;;;;;;8431467;28;20051;-82
2023/03/21 04:22:21;;;;;;;74.90;22.08;;;;;;;;;;8432901;28;20044;-83
2023/03/21 04:26:31;;;;;;;87.82;19.92;;;;;;;;;;8418445;28;20185;-83
2023/03/21 04:30:34;;;;;;;93.70;19.63;;;;;;;;;;8393463;28;20146;-83
2023/03/21 04:34:39;;;;;;;64.47;21.60;;;;;;;;;;8430986;28;20136;-83
2023/03/21 04:38:42;;;;;;;74.53;23.83;;;;;;;;;;8413376;28;20080;-83
2023/03/21 04:42:45;;;;;;;77.55;28.30;;;;;;;;;;8432151;28;20115;-83
2023/03/21 04:46:49;;;;;;;80.90;27.45;;;;;;;;;;8432642;28;20427;-83
2023/03/21 04:50:53;;;;;;;66.53;21.60;;;;;;;;;;8431731;28;20048;-83
2023/03/21 04:54:56;;;;;;;70.93;21.27;;;;;;;;;;8431805;28;20552;-83
2023/03/21 04:59:00;;;;;;;70.20;21.40;;;;;;;;;;8430914;28;20051;-83
2023/03/21 05:03:03;;;;;;;66.35;22.63;;;;;;;;;;8419000;28;20048;-83
2023/03/21 05:07:08;;;;;;;66.70;23.63;;;;;;;;;;8416622;28;20449;-84
2023/03/21 05:11:11;;;;;;;69.65;22.20;;;;;;;;;;8430805;28;20127;-83
2023/03/21 05:15:14;;;;;;;60.65;21.75;;;;;;;;;;8425852;28;20044;-84
2023/03/21 05:19:17;;;;;;;64.03;19.38;;;;;;;;;;8396958;28;20763;-83
2023/03/21 05:23:22;;;;;;;68.35;24.27;;;;;;;;;;8430255;28;20066;-83
2023/03/21 05:27:36;;;;;;;68.57;26.13;;;;;;;;;;8396703;28;20051;-83
2023/03/21 05:31:39;;;;;;;66.70;22.88;;;;;;;;;;8431674;28;20097;-84
2023/03/21 05:35:42;;;;;;;61.28;23.05;;;;;;;;;;8422256;28;20495;-82
2023/03/21 05:39:46;;;;;;;54.03;20.42;;;;;;;;;;8409916;28;20475;-83
2023/03/21 05:43:49;;;;;;;67.95;22.70;;;;;;;;;;8418233;28;20159;-84
2023/03/21 05:47:52;;;;;;;53.10;20.85;;;;;;;;;;8419625;28;20512;-84
2023/03/21 05:51:55;;;;;;;51.25;17.38;;;;;;;;;;8429792;28;20044;-83
2023/03/21 05:55:59;;;;;;;55.38;18.52;;;;;;;;;;8428953;28;20448;-84
2023/03/21 06:00:03;;;;;;;53.60;20.98;;;;;;;;;;8429930;28;20044;-83
2023/03/21 06:04:06;;;;;;;59.40;20.45;;;;;;;;;;8414982;28;20119;-84
2023/03/21 06:08:09;;;;;;;50.40;18.73;;;;;;;;;;8417015;28;20082;-83
2023/03/21 06:12:15;;;;;;;48.42;18.27;;;;;;;;;;8430486;28;20118;-83
2023/03/21 06:16:17;;;;;;;55.42;20.35;;;;;;;;;;8421971;28;20044;-85
2023/03/21 06:20:21;;;;;;;61.72;24.27;;;;;;;;;;8403211;28;20076;-82
2023/03/21 06:24:25;;;;;;;67.72;26.48;;;;;;;;;;8429857;28;20484;-84
2023/03/21 06:28:29;;;;;;;61.13;23.33;;;;;;;;;;8429554;28;20054;-84
2023/03/21 06:32:32;;;;;;;46.53;20.13;;;;;;;;;;8428573;28;20101;-83
2023/03/21 06:36:35;;;;;;;50.42;22.00;;;;;;;;;;8428549;28;20058;-85
2023/03/21 06:40:39;;;;;;;52.40;21.08;;;;;;;;;;8414977;28;20081;-83
2023/03/21 06:44:43;;;;;;;42.75;19.40;;;;;;;;;;8428069;28;20074;-85
2023/03/21 06:48:47;;;;;;;42.40;18.25;;;;;;;;;;8428058;28;20084;-84
2023/03/21 06:52:50;;;;;;;39.67;17.13;;;;;;;;;;8428184;28;20060;-83
2023/03/21 06:56:53;;;;;;;38.85;18.85;;;;;;;;;;8427865;28;20102;-83
2023/03/21 07:01:00;;;;;;;39.63;19.60;;;;;;;;;;8433367;28;20079;-85
2023/03/21 07:05:03;;;;;;;42.67;20.50;;;;;;;;;;8433481;28;20127;-83
2023/03/21 07:09:07;;;;;;;39.83;19.38;;;;;;;;;;8422524;28;20040;-84
2023/03/21 07:13:10;;;;;;;36.97;18.50;;;;;;;;;;8434387;28;20048;-83
2023/03/21 07:17:14;;;;;;;38.92;18.40;;;;;;;;;;8429820;28;20159;-83
2023/03/21 07:21:17;;;;;;;36.00;17.38;;;;;;;;;;8403923;28;20412;-83
2023/03/21 07:25:20;;;;;;;35.35;18.30;;;;;;;;;;8392046;28;20048;-83
2023/03/21 07:29:24;;;;;;;38.60;18.77;;;;;;;;;;8400065;28;20051;-84
2023/03/21 07:33:28;;;;;;;31.70;15.98;;;;;;;;;;8421700;28;20058;-83
2023/03/21 07:37:31;;;;;;;34.38;18.15;;;;;;;;;;8395645;28;20048;-84
2023/03/21 07:41:34;;;;;;;30.02;15.10;;;;;;;;;;8423716;28;20130;-85
2023/03/21 07:45:37;;;;;;;34.72;16.80;;;;;;;;;;8408442;28;20412;-85
2023/03/21 07:49:41;;;;;;;31.92;15.52;;;;;;;;;;8400281;28;20061;-83
2023/03/21 07:53:47;;;;;;;34.53;16.15;;;;;;;;;;8406147;28;20045;-83
2023/03/21 07:57:51;;;;;;;32.83;17.10;;;;;;;;;;8426827;28;20138;-84
2023/03/21 08:01:54;;;;;;;35.88;17.58;;;;;;;;;;8414547;28;20052;-83
2023/03/21 08:06:00;;;;;;;41.03;17.98;;;;;;;;;;8406530;28;20044;-83
2023/03/21 08:10:03;;;;;;;41.15;17.92;;;;;;;;;;8406900;28;20053;-83
2023/03/21 08:14:06;;;;;;;39.40;18.63;;;;;;;;;;8430597;28;20101;-84
2023/03/21 08:18:09;;;;;;;36.85;17.25;;;;;;;;;;8387530;28;20052;-86
2023/03/21 08:22:13;;;;;;;38.70;17.75;;;;;;;;;;8381613;28;20045;-83
2023/03/21 08:26:18;;;;;;;37.83;16.95;;;;;;;;;;8376991;28;20401;-84
2023/03/21 08:30:22;;;;;;;53.25;21.17;;;;;;;;;;8384171;28;20072;-83
2023/03/21 08:34:25;;;;;;;40.40;18.23;;;;;;;;;;8380056;28;20048;-85
2023/03/21 08:38:32;;;;;;;48.95;21.02;;;;;;;;;;8364265;28;20052;-84
2023/03/21 08:42:35;;;;;;;41.20;17.92;;;;;;;;;;8384850;28;20052;-83
2023/03/21 08:46:38;;;;;;;37.65;17.25;;;;;;;;;;8391824;28;20079;-83
2023/03/21 08:50:41;;;;;;;42.38;17.35;;;;;;;;;;8388702;28;20564;-85
2023/03/21 08:54:47;;;;;;;41.58;18.80;;;;;;;;;;8386577;28;20106;-85
2023/03/21 08:58:50;;;;;;;33.22;16.90;;;;;;;;;;8367845;28;20052;-85
2023/03/21 09:02:53;;;;;;;35.90;16.10;;;;;;;;;;8386673;28;20044;-84
2023/03/21 09:06:56;;;;;;;39.25;17.90;;;;;;;;;;8370973;28;20095;-83
2023/03/21 09:11:00;;;;;;;34.50;14.95;;;;;;;;;;8386930;28;20044;-86
2023/03/21 09:15:04;;;;;;;33.47;15.30;;;;;;;;;;8392928;28;20131;-85
2023/03/21 09:19:08;;;;;;;37.20;15.73;;;;;;;;;;8383853;28;20824;-84
2023/03/21 09:23:12;;;;;;;25.00;12.98;;;;;;;;;;8381884;28;20044;-84
2023/03/21 09:27:21;;;;;;;28.63;13.23;;;;;;;;;;8391929;28;20055;-84
2023/03/21 09:31:24;;;;;;;24.40;12.70;;;;;;;;;;8424696;28;20055;-87
2023/03/21 09:35:28;;;;;;;30.77;17.40;;;;;;;;;;8404061;28;20123;-83
2023/03/21 09:39:30;;;;;;;28.70;12.82;;;;;;;;;;8402890;28;20045;-83
2023/03/21 09:43:48;;;;;;;25.13;12.25;;;;;;;;;;8428633;28;20040;-87
2023/03/21 09:47:53;;;;;;;24.55;12.20;;;;;;;;;;8428422;28;20117;-85
2023/03/21 09:51:56;;;;;;;16.25;8.48;;;;;;;;;;8428665;28;20046;-86
2023/03/21 09:56:02;;;;;;;16.33;9.18;;;;;;;;;;8428907;28;20123;-82
2023/03/21 10:00:21;;;;;;;17.65;9.73;;;;;;;;;;8429015;28;20040;-86
2023/03/21 10:04:25;;;;;;;19.98;10.73;;;;;;;;;;8428817;28;20048;-83
2023/03/21 10:08:35;;;;;;;28.23;11.68;;;;;;;;;;8429448;28;20048;-84
2023/03/21 10:12:38;;;;;;;20.08;10.52;;;;;;;;;;8428509;28;20040;-83
2023/03/21 10:16:44;;;;;;;18.10;10.43;;;;;;;;;;8428654;28;20071;-83
2023/03/21 10:20:47;;;;;;;22.38;11.10;;;;;;;;;;8393904;28;20045;-85
2023/03/21 10:24:50;;;;;;;15.23;8.90;;;;;;;;;;8379636;28;20040;-83
2023/03/21 10:28:56;;;;;;;22.80;11.80;;;;;;;;;;8390602;28;20045;-85
2023/03/21 10:33:04;;;;;;;23.50;12.35;;;;;;;;;;8389849;28;20510;-83
2023/03/21 10:37:13;;;;;;;23.90;11.82;;;;;;;;;;8381746;28;20131;-83
2023/03/21 10:41:19;;;;;;;20.77;11.55;;;;;;;;;;8385852;28;20492;-84
2023/03/21 10:45:24;;;;;;;25.95;11.82;;;;;;;;;;8395674;28;20422;-83
2023/03/21 10:49:30;;;;;;;21.40;11.13;;;;;;;;;;8390164;28;20106;-85
2023/03/21 10:53:40;;;;;;;23.38;12.60;;;;;;;;;;8390221;28;20045;-83
2023/03/21 10:57:44;;;;;;;20.20;10.70;;;;;;;;;;8390434;28;20044;-82
2023/03/21 11:01:51;;;;;;;21.67;10.48;;;;;;;;;;8386287;28;20064;-84
2023/03/21 11:06:03;;;;;;;20.10;10.95;;;;;;;;;;8382454;28;20125;-84
2023/03/21 11:10:15;;;;;;;17.08;9.73;;;;;;;;;;8403579;28;20675;-83
2023/03/21 11:14:33;;;;;;;18.60;9.60;;;;;;;;;;8390272;28;20458;-84
2023/03/21 11:18:43;;;;;;;19.70;9.38;;;;;;;;;;8395325;28;20047;-83
2023/03/21 11:22:49;;;;;;;23.33;11.07;;;;;;;;;;8394364;28;20049;-85
2023/03/21 11:26:52;;;;;;;18.15;9.23;;;;;;;;;;8387546;28;20044;-84
2023/03/21 11:30:57;;;;;;;19.58;11.13;;;;;;;;;;8377838;28;20051;-82
2023/03/21 11:35:02;;;;;;;19.13;10.35;;;;;;;;;;8389278;28;20110;-83
2023/03/21 11:39:30;;;;;;;19.15;10.90;;;;;;;;;;8386447;28;20477;-84
2023/03/21 11:43:36;;;;;;;22.88;11.20;;;;;;;;;;8379062;28;20445;-83
2023/03/21 11:47:39;;;;;;;25.75;11.60;;;;;;;;;;8383538;28;20059;-83
2023/03/21 11:51:51;;;;;;;26.60;12.90;;;;;;;;;;8374245;28;20048;-82
2023/03/21 11:56:07;;;;;;;24.10;12.20;;;;;;;;;;8388604;28;20619;-83
2023/03/21 12:00:19;;;;;;;21.95;13.05;;;;;;;;;;8379218;28;20116;-84
2023/03/21 12:04:39;;;;;;;21.63;9.30;;;;;;;;;;8385458;28;20059;-84
2023/03/21 12:08:53;;;;;;;18.65;10.00;;;;;;;;;;8380225;28;20542;-84
2023/03/21 12:13:10;;;;;;;19.08;9.98;;;;;;;;;;8379387;28;20049;-84
2023/03/21 12:17:22;;;;;;;18.85;10.00;;;;;;;;;;8368666;28;20079;-83
2023/03/21 12:21:34;;;;;;;17.63;9.38;;;;;;;;;;8389755;28;20057;-85
2023/03/21 12:25:42;;;;;;;15.43;9.68;;;;;;;;;;8394461;28;20078;-83
2023/03/21 12:30:17;;;;;;;16.85;10.48;;;;;;;;;;8401509;28;20045;-83
2023/03/21 12:34:38;;;;;;;16.13;8.43;;;;;;;;;;8375961;28;20403;-83
2023/03/21 12:38:45;;;;;;;16.80;9.60;;;;;;;;;;8376909;28;20048;-84
2023/03/21 12:43:23;;;;;;;16.52;9.10;;;;;;;;;;8380793;28;20052;-85
2023/03/21 12:47:30;;;;;;;13.43;7.45;;;;;;;;;;8388263;28;20075;-84
2023/03/21 12:51:38;;;;;;;18.70;10.13;;;;;;;;;;8378366;28;20052;-85
2023/03/21 12:55:42;;;;;;;20.55;10.45;;;;;;;;;;8380142;28;20126;-85
2023/03/21 12:59:50;;;;;;;14.77;8.55;;;;;;;;;;8373087;28;20048;-84
2023/03/21 13:04:06;;;;;;;15.65;9.82;;;;;;;;;;8386676;28;20054;-85
2023/03/21 13:08:16;;;;;;;15.45;8.70;;;;;;;;;;8384789;28;20059;-83
2023/03/21 13:12:44;;;;;;;13.88;8.98;;;;;;;;;;8402224;28;20040;-82
2023/03/21 13:16:52;;;;;;;15.15;9.45;;;;;;;;;;8407059;28;20484;-83
2023/03/21 13:20:58;;;;;;;18.45;10.50;;;;;;;;;;8430599;28;20055;-83
2023/03/21 13:25:05;;;;;;;17.17;9.30;;;;;;;;;;8430002;28;20036;-84
2023/03/21 13:29:25;;;;;;;14.52;9.10;;;;;;;;;;8419503;28;20068;-82
2023/03/21 13:33:30;;;;;;;17.60;9.60;;;;;;;;;;8407547;28;20072;-86
2023/03/21 13:37:41;;;;;;;11.52;6.15;;;;;;;;;;8392377;28;20109;-84
2023/03/21 13:41:47;;;;;;;14.27;7.47;;;;;;;;;;8378818;28;20454;-83
2023/03/21 13:45:53;;;;;;;12.00;6.28;;;;;;;;;;8383769;28;20044;-82
2023/03/21 13:50:33;;;;;;;12.75;6.88;;;;;;;;;;8391277;28;20057;-82
2023/03/21 13:54:52;;;;;;;11.90;6.80;;;;;;;;;;8376959;28;20040;-83
2023/03/21 13:58:59;;;;;;;14.40;7.97;;;;;;;;;;8386850;28;20053;-83
2023/03/21 14:03:09;;;;;;;13.65;7.60;;;;;;;;;;8383502;28;20041;-83
2023/03/21 14:07:15;;;;;;;16.40;8.57;;;;;;;;;;8374770;28;20072;-83
2023/03/21 14:11:22;;;;;;;15.20;8.32;;;;;;;;;;8393211;28;20083;-85
2023/03/21 14:15:29;;;;;;;16.63;8.52;;;;;;;;;;8375745;28;20109;-82
2023/03/21 14:19:33;;;;;;;14.52;7.35;;;;;;;;;;8390396;28;20048;-82
2023/03/21 14:23:39;;;;;;;17.85;9.70;;;;;;;;;;8401152;28;20124;-83
2023/03/21 14:27:47;;;;;;;17.23;9.07;;;;;;;;;;8388741;28;20507;-84
2023/03/21 14:31:50;;;;;;;10.77;6.93;;;;;;;;;;8373690;28;20397;-82
2023/03/21 14:35:57;;;;;;;14.55;8.07;;;;;;;;;;8375941;28;20053;-82
2023/03/21 14:40:01;;;;;;;13.27;8.38;;;;;;;;;;8385719;28;20074;-82
2023/03/21 14:44:14;;;;;;;34.90;18.45;;;;;;;;;;8378217;28;20048;-83
2023/03/21 14:48:18;;;;;;;10.40;6.07;;;;;;;;;;8380120;28;20060;-85
2023/03/21 14:52:24;;;;;;;9.48;6.38;;;;;;;;;;8380463;28;20476;-85
2023/03/21 14:56:27;;;;;;;11.18;6.70;;;;;;;;;;8399263;28;20428;-87
2023/03/21 15:00:34;;;;;;;12.50;7.28;;;;;;;;;;8386220;28;20049;-83
2023/03/21 15:04:37;;;;;;;13.60;7.72;;;;;;;;;;8375357;28;20549;-83
2023/03/21 15:08:54;;;;;;;14.63;8.60;;;;;;;;;;8380880;28;20044;-82
2023/03/21 15:13:00;;;;;;;10.30;5.63;;;;;;;;;;8374745;28;20412;-84
2023/03/21 15:17:08;;;;;;;11.98;5.20;;;;;;;;;;8384993;28;20070;-83
2023/03/21 15:21:16;;;;;;;8.15;4.88;;;;;;;;;;8356334;28;20084;-84
2023/03/21 15:25:22;;;;;;;9.95;5.72;;;;;;;;;;8395890;28;20040;-83
2023/03/21 15:29:26;;;;;;;7.97;4.63;;;;;;;;;;8383265;28;20045;-83
2023/03/21 15:33:31;;;;;;;24.40;11.68;;;;;;;;;;8384823;28;20056;-82
2023/03/21 15:37:36;;;;;;;6.22;4.03;;;;;;;;;;8398944;28;20052;-84
2023/03/21 15:41:41;;;;;;;7.22;3.85;;;;;;;;;;8384639;28;20044;-82
2023/03/21 15:45:48;;;;;;;12.65;6.47;;;;;;;;;;8397660;28;20051;-84
2023/03/21 15:49:56;;;;;;;7.53;4.43;;;;;;;;;;8377233;28;20060;-84
2023/03/21 15:54:02;;;;;;;16.70;9.57;;;;;;;;;;8390369;28;20040;-83
2023/03/21 15:58:12;;;;;;;8.80;5.03;;;;;;;;;;8392528;28;20412;-84
2023/03/21 16:02:17;;;;;;;11.48;6.82;;;;;;;;;;8411569;28;20049;-82
2023/03/21 16:06:29;;;;;;;61.08;24.05;;;;;;;;;;8414346;28;20473;-83
2023/03/21 16:10:35;;;;;;;11.52;6.43;;;;;;;;;;8398520;28;20049;-82
2023/03/21 16:14:38;;;;;;;7.72;4.22;;;;;;;;;;8391653;28;20044;-84
2023/03/21 16:18:41;;;;;;;9.93;6.57;;;;;;;;;;8384544;28;20048;-84
2023/03/21 16:22:47;;;;;;;14.07;8.85;;;;;;;;;;8386302;28;20126;-84
2023/03/21 16:26:53;;;;;;;212.43;59.95;;;;;;;;;;8394856;28;20127;-85
2023/03/21 16:30:57;;;;;;;51.78;20.05;;;;;;;;;;8393380;28;20048;-84
2023/03/21 16:35:03;;;;;;;26.13;13.63;;;;;;;;;;8394083;28;20049;-84
2023/03/21 16:39:17;;;;;;;20.15;10.60;;;;;;;;;;8393673;28;20054;-83
2023/03/21 16:43:20;;;;;;;20.63;10.80;;;;;;;;;;8362781;28;20143;-84
2023/03/21 16:47:23;;;;;;;21.98;12.55;;;;;;;;;;8390902;28;20055;-83
2023/03/21 16:51:32;;;;;;;21.95;11.25;;;;;;;;;;8394095;28;20056;-85
2023/03/21 16:55:39;;;;;;;21.95;11.50;;;;;;;;;;8394815;28;20539;-85
2023/03/21 16:59:42;;;;;;;23.15;12.20;;;;;;;;;;8385492;28;20048;-84
2023/03/21 17:03:46;;;;;;;25.52;13.75;;;;;;;;;;8393069;28;20522;-83
2023/03/21 17:07:49;;;;;;;70.30;32.70;;;;;;;;;;8393101;28;20049;-83
2023/03/21 17:11:58;;;;;;;50.58;23.80;;;;;;;;;;8393012;28;20044;-84
2023/03/21 17:16:01;;;;;;;35.35;18.85;;;;;;;;;;8392180;28;20044;-84
2023/03/21 17:20:16;;;;;;;31.85;16.10;;;;;;;;;;8392432;28;20059;-85
2023/03/21 17:24:20;;;;;;;75.88;28.75;;;;;;;;;;8383853;28;20058;-83
2023/03/21 17:28:25;;;;;;;56.65;26.27;;;;;;;;;;8378723;28;20052;-84
2023/03/21 17:32:28;;;;;;;110.13;46.17;;;;;;;;;;8381827;28;20048;-85
2023/03/21 17:36:35;;;;;;;91.65;38.40;;;;;;;;;;8374181;28;20048;-84
2023/03/21 17:40:39;;;;;;;104.18;36.60;;;;;;;;;;8376414;28;20457;-85
2023/03/21 17:44:43;;;;;;;110.88;33.13;;;;;;;;;;8385211;28;20510;-83
2023/03/21 17:48:47;;;;;;;110.72;38.65;;;;;;;;;;8387563;28;20101;-84
2023/03/21 17:52:50;;;;;;;63.28;25.90;;;;;;;;;;8380035;28;20044;-85
2023/03/21 17:57:03;;;;;;;42.22;17.10;;;;;;;;;;8377144;28;20051;-83
2023/03/21 18:01:08;;;;;;;44.35;19.40;;;;;;;;;;8369206;28;20048;-83
2023/03/21 18:05:14;;;;;;;37.47;15.90;;;;;;;;;;8383588;28;20048;-83
2023/03/21 18:09:19;;;;;;;24.35;11.45;;;;;;;;;;8367055;28;20504;-82
2023/03/21 18:13:23;;;;;;;24.10;11.05;;;;;;;;;;8375722;28;20060;-84
2023/03/21 18:17:29;;;;;;;27.35;14.98;;;;;;;;;;8383954;28;20053;-83
2023/03/21 18:21:34;;;;;;;48.00;31.17;;;;;;;;;;8386272;28;20048;-84
2023/03/21 18:25:40;;;;;;;35.97;22.67;;;;;;;;;;8373347;28;20052;-83
2023/03/21 18:29:45;;;;;;;20.58;9.63;;;;;;;;;;8379605;28;20063;-83
2023/03/21 18:33:51;;;;;;;90.93;31.33;;;;;;;;;;8379946;28;20041;-83
2023/03/21 18:37:56;;;;;;;39.90;17.48;;;;;;;;;;8405419;28;20044;-83
2023/03/21 18:42:01;;;;;;;61.10;27.13;;;;;;;;;;8428378;28;20040;-84
2023/03/21 18:46:08;;;;;;;85.03;38.85;;;;;;;;;;8428594;28;20302;-83
2023/03/21 18:50:16;;;;;;;77.57;30.35;;;;;;;;;;8426741;28;20055;-82
2023/03/21 18:54:20;;;;;;;53.25;22.90;;;;;;;;;;8427943;28;20510;-84
2023/03/21 18:58:24;;;;;;;39.42;19.05;;;;;;;;;;8433273;28;20044;-83
2023/03/21 19:02:30;;;;;;;39.60;21.27;;;;;;;;;;8433843;28;20484;-83
2023/03/21 19:06:38;;;;;;;80.97;30.98;;;;;;;;;;8434091;28;20102;-83
2023/03/21 19:10:44;;;;;;;92.18;35.10;;;;;;;;;;8434242;28;20048;-84
2023/03/21 19:14:50;;;;;;;40.58;20.92;;;;;;;;;;8401037;28;20055;-82
2023/03/21 19:18:55;;;;;;;39.42;19.25;;;;;;;;;;8434956;28;20522;-83
2023/03/21 19:23:02;;;;;;;40.70;19.05;;;;;;;;;;8434669;28;20050;-83
2023/03/21 19:27:05;;;;;;;30.13;14.07;;;;;;;;;;8434599;28;20547;-83
2023/03/21 19:31:10;;;;;;;35.08;17.55;;;;;;;;;;8434273;28;20055;-82
2023/03/21 19:35:16;;;;;;;43.13;21.25;;;;;;;;;;8434020;28;20055;-82
2023/03/21 19:39:24;;;;;;;25.13;13.25;;;;;;;;;;8434560;28;20044;-82
2023/03/21 19:43:35;;;;;;;32.95;16.08;;;;;;;;;;8434624;28;20036;-83
2023/03/21 19:47:40;;;;;;;;;;;;;;;;;;8416106;28;20051;-82
2023/03/21 19:51:46;;;;;;;79.97;24.65;;;;;;;;;;8433282;28;19927;-82
2023/03/21 19:55:52;;;;;;;175.07;55.97;;;;;;;;;;8433148;28;20101;-83
2023/03/21 19:59:57;;;;;;;291.27;89.78;;;;;;;;;;8432423;28;20055;-83
2023/03/21 20:04:04;;;;;;;169.43;59.40;;;;;;;;;;8433137;28;20450;-83
2023/03/21 20:08:09;;;;;;;94.78;33.03;;;;;;;;;;8433256;28;20499;-82
2023/03/21 20:12:15;;;;;;;131.52;42.70;;;;;;;;;;8407383;28;20044;-81
2023/03/21 20:16:20;;;;;;;58.10;27.83;;;;;;;;;;8432834;28;20470;-82
2023/03/21 20:20:25;;;;;;;42.22;17.15;;;;;;;;;;8407462;28;20102;-82
2023/03/21 20:24:30;;;;;;;69.25;23.63;;;;;;;;;;8432825;28;20124;-83
2023/03/21 20:28:36;;;;;;;27.55;14.07;;;;;;;;;;8414484;28;20066;-82
2023/03/21 20:32:42;;;;;;;28.45;12.88;;;;;;;;;;8431823;28;20070;-82
2023/03/21 20:36:48;;;;;;;29.13;11.98;;;;;;;;;;8431913;28;20048;-82
2023/03/21 20:40:52;;;;;;;26.38;12.38;;;;;;;;;;8429971;28;20040;-83
2023/03/21 20:45:00;;;;;;;30.63;14.35;;;;;;;;;;8421026;28;20043;-82
2023/03/21 20:49:05;;;;;;;58.83;24.55;;;;;;;;;;8431255;28;20102;-83
2023/03/21 20:53:10;;;;;;;63.15;27.25;;;;;;;;;;8431823;28;20044;-81
2023/03/21 20:57:15;;;;;;;63.38;24.00;;;;;;;;;;8396874;28;20118;-83
2023/03/21 21:01:22;;;;;;;34.65;16.65;;;;;;;;;;8431592;28;20055;-82
2023/03/21 21:05:32;;;;;;;44.33;17.70;;;;;;;;;;8431137;28;20174;-84
2023/03/21 21:09:36;;;;;;;33.13;15.68;;;;;;;;;;8431422;28;20135;-82
2023/03/21 21:13:41;;;;;;;28.85;12.32;;;;;;;;;;8403620;28;20415;-83
2023/03/21 21:17:48;;;;;;;18.55;8.73;;;;;;;;;;8430363;28;20040;-84
2023/03/21 21:21:51;;;;;;;18.15;8.88;;;;;;;;;;8417176;28;20036;-82
2023/03/21 21:25:54;;;;;;;35.72;14.57;;;;;;;;;;8418194;28;20047;-81
2023/03/21 21:29:58;;;;;;;33.03;12.23;;;;;;;;;;8416006;28;20113;-82
2023/03/21 21:34:04;;;;;;;38.92;14.77;;;;;;;;;;8430150;28;20381;-81
2023/03/21 21:38:07;;;;;;;39.83;16.55;;;;;;;;;;8430210;28;20055;-82
2023/03/21 21:42:12;;;;;;;41.33;16.50;;;;;;;;;;8430034;28;20047;-81
2023/03/21 21:46:18;;;;;;;29.65;12.70;;;;;;;;;;8430501;28;20051;-82
2023/03/21 21:50:25;;;;;;;48.33;18.92;;;;;;;;;;8428799;28;20083;-82
2023/03/21 21:54:32;;;;;;;56.20;21.95;;;;;;;;;;8403846;28;20097;-83
2023/03/21 21:58:37;;;;;;;49.97;21.33;;;;;;;;;;8428990;28;20630;-82
2023/03/21 22:02:42;;;;;;;58.60;19.92;;;;;;;;;;8429803;28;20052;-81
2023/03/21 22:06:47;;;;;;;58.17;23.25;;;;;;;;;;8430080;28;20529;-81
2023/03/21 22:10:50;;;;;;;68.00;24.90;;;;;;;;;;8429533;28;20048;-83
2023/03/21 22:14:53;;;;;;;58.90;23.15;;;;;;;;;;8428988;28;20051;-83
2023/03/21 22:18:56;;;;;;;68.82;23.65;;;;;;;;;;8429104;28;20075;-84
2023/03/21 22:23:00;;;;;;;54.60;21.73;;;;;;;;;;8413751;28;20399;-83
2023/03/21 22:27:03;;;;;;;56.80;21.35;;;;;;;;;;8417778;28;20094;-83
2023/03/21 22:31:11;;;;;;;167.52;43.58;;;;;;;;;;8426010;28;20483;-83
2023/03/21 22:35:14;;;;;;;91.93;29.88;;;;;;;;;;8417966;28;20055;-84
2023/03/21 22:39:19;;;;;;;63.70;25.08;;;;;;;;;;8428334;28;20688;-83
2023/03/21 22:43:22;;;;;;;81.13;30.05;;;;;;;;;;8415733;28;20544;-83
2023/03/21 22:47:25;;;;;;;79.85;28.85;;;;;;;;;;8428271;28;20142;-83
2023/03/21 22:51:28;;;;;;;82.20;26.67;;;;;;;;;;8428730;28;20077;-84
2023/03/21 22:55:33;;;;;;;114.22;40.13;;;;;;;;;;8428399;28;20040;-83
2023/03/21 22:59:35;;;;;;;132.65;49.47;;;;;;;;;;8428381;28;20055;-84
2023/03/21 23:03:38;;;;;;;70.38;26.75;;;;;;;;;;8428404;28;20048;-85
2023/03/21 23:07:41;;;;;;;92.82;33.70;;;;;;;;;;8428485;28;20476;-84
2023/03/21 23:11:48;;;;;;;99.40;35.55;;;;;;;;;;8427936;28;20117;-84
2023/03/21 23:15:50;;;;;;;63.97;25.33;;;;;;;;;;8410386;28;20066;-85
2023/03/21 23:19:53;;;;;;;64.72;24.77;;;;;;;;;;8427738;28;20043;-84
2023/03/21 23:23:56;;;;;;;67.82;24.58;;;;;;;;;;8428261;28;20085;-84
2023/03/21 23:28:01;;;;;;;62.20;23.42;;;;;;;;;;8424680;28;20446;-85
2023/03/21 23:32:04;;;;;;;87.47;28.88;;;;;;;;;;8418541;28;20040;-85
2023/03/21 23:36:09;;;;;;;62.65;23.67;;;;;;;;;;8427895;28;20048;-85
2023/03/21 23:40:13;;;;;;;74.65;25.20;;;;;;;;;;8428556;28;20040;-82
2023/03/21 23:44:18;;;;;;;69.30;23.20;;;;;;;;;;8433213;28;20048;-82
2023/03/21 23:48:21;;;;;;;53.47;21.05;;;;;;;;;;8433521;28;20052;-82
2023/03/21 23:52:24;;;;;;;47.28;16.15;;;;;;;;;;8433797;28;20044;-83
2023/03/21 23:56:28;;;;;;;47.28;19.92;;;;;;;;;;8433787;28;20048;-84
